août
21

GP’S MX1 – MX2 – MX3 : LES QUALIFIÉS

GP DU BRÉSIL

MX1 – Qualifying Race – Classification
Pos Nr Rider Nat. Fed. Bike Time laps Diff. First Diff. Prev. Bestlaptime in lap Speed

1 19 Philippaerts, David ITA FMI Yamaha 25:07.946 11 0:00.000 0:00.000 2:04.195 9 47.828
2 222 Cairoli, Antonio ITA FMI KTM 25:08.221 11 0:00.275 0:00.275 2:04.513 9 47.706
3 25 Desalle, Clement BEL FMB Suzuki 25:29.132 11 0:21.186 0:20.911 2:05.490 8 47.334
4 121 Boog, Xavier FRA FFM Kawasaki 25:33.775 11 0:25.829 0:04.643 2:06.737 8 46.869
5 40 Leok, Tanel EST EMF Honda 25:36.591 11 0:28.645 0:02.816 2:06.628 9 46.909
6 22 Goncalves, Rui POR FMP KTM 25:37.272 11 0:29.326 0:00.681 2:06.651 4 46.901
7 11 Ramon, Steve BEL FMB Suzuki 25:46.167 11 0:38.221 0:08.895 2:06.481 5 46.964
8 2 Nagl, Maximilian GER DMSB KTM 25:51.999 11 0:44.053 0:05.832 2:05.700 5 47.255
9 702 Albertson, Jimmy USA AMA Honda 25:56.215 11 0:48.269 0:04.216 2:08.061 6 46.384
10 6 Coppins, Joshua NZL MNZ Aprilia 26:06.448 11 0:58.502 0:10.233 2:08.149 4 46.352
11 39 Guarneri, Davide ITA FMI Honda 26:27.895 11 1:19.949 0:21.447 2:07.172 2 46.708
12 65 Castro, Roberto CRC MCCR Kawasaki 26:38.264 11 1:30.318 0:10.369 2:11.307 1 45.237
13 152 Balbi, Antonio BRA CBM Kawasaki 26:57.176 11 1:49.230 0:18.912 2:11.824 4 45.06
14 411 Paulino, Joao BRA CBM Honda 27:04.533 11 1:56.587 0:07.357 2:12.463 4 44.843
15 114 Silva, Leandro BRA CBM Honda 27:12.744 11 2:04.798 0:08.211 2:12.302 3 44.897
16 931 Zenni, Rafael BRA CBM Honda 27:18.121 11 2:10.175 0:05.377 2:13.468 5 44.505
17 538 Lima, Marcello BRA CBM Kawasaki 25:17.832 10 1 lap 1 lap 2:14.663 3 44.11
18 292 Parise, Douglas BRA CBM Kawasaki 25:32.889 10 1 lap 0:15.057 2:17.211 4 43.291
19 67 Felipe, Jose Gerardo ARG CAMOD Kawasaki 25:57.691 10 1 lap 0:24.802 2:15.950 5 43.693
20 951 Müller, Ariel BRA CBM Kawasaki 27:07.162 10 1 lap 1:09.471 2:21.933 2 41.851
21 61 Cerdena Fearne, Agustin URG FUM Kawasaki 25:18.542 9 2 laps 1 lap 2:26.868 2 40.444
22 104 Balbi, Mariana BRA CBM Yamaha 26:03.547 9 2 laps 0:45.005 2:26.355 2 40.586
23 227 Garcia, Wellington BRA CBM Honda 25:20.963 8 3 laps 1 lap 2:13.211 2 44.591
24 62 Balduvino Priore, Pablo Alberto URG FUM Kawasaki 26:10.648 8 3 laps 0:49.685 2:50.849 1 34.768

MX2 – Qualifying Race – Classification
Pos Nr Rider Nat. Fed. Bike Time laps Diff. First Diff. Prev. Bestlaptime in lap Speed

1 1 Musquin, Marvin FRA FFM KTM 25:21.646 11 0:00.000 0:00.000 2:05.451 1 47.349
2 21 Paulin, Gautier FRA MCM Yamaha 25:23.754 11 0:02.108 0:02.108 2:05.726 5 47.246
3 89 van Horebeek, Jeremy BEL FMB Kawasaki 25:40.493 11 0:18.847 0:16.739 2:06.062 2 47.12
4 23 Tonus, Arnaud SUI FMS Suzuki 25:51.526 11 0:29.880 0:11.033 2:07.409 5 46.622
5 11 Simpson, Shaun GBR MCUI KTM 25:53.765 11 0:32.119 0:02.239 2:08.446 4 46.245
6 34 Roelants, Joel BEL FMB KTM 25:55.442 11 0:33.796 0:01.677 2:08.701 3 46.153
7 94 Roczen, Ken GER DMSB Suzuki 25:56.128 11 0:34.482 0:00.686 2:07.812 6 46.475
8 338 Osborne, Zach USA AMA Yamaha 25:59.420 11 0:37.774 0:03.292 2:07.991 5 46.41
9 183 Frossard, Steven FRA FFM Kawasaki 26:17.694 11 0:56.048 0:18.274 2:07.909 5 46.439
10 430 Charlier, Christophe FRA FFM Yamaha 26:22.023 11 1:00.377 0:04.329 2:09.945 4 45.712
11 112 Zanoni, Swian BRA CBM Honda 26:38.550 11 1:16.904 0:16.527 2:10.971 3 45.354
12 45 Nicholls, Jake GBR ACU KTM 26:45.925 11 1:24.279 0:07.375 2:11.718 5 45.096
13 77 Lupino, Alessandro ITA FMI Yamaha 26:50.803 11 1:29.157 0:04.878 2:10.645 7 45.467
14 189 Chatfield, Adam GBR CBM Kawasaki 27:03.074 11 1:41.428 0:12.271 2:11.988 4 45.004
15 438 Lima, Eduardo BRA CBM Kawasaki 25:31.226 10 1 lap 1 lap 2:14.996 3 44.001
16 63 Martin, Humberto VEN FMV Kawasaki 25:35.611 10 1 lap 0:04.385 2:16.706 1 43.451
17 68 Hauptli Cidade, Anderson BRA CBM Yamaha 26:06.996 10 1 lap 0:31.385 2:16.277 6 43.588
18 556 Castro, Cristopher BRA CBM Yamaha 26:25.516 10 1 lap 0:18.520 2:15.778 4 43.748
19 106 Amaral, Gustavo BRA CBM Suzuki 27:01.374 10 1 lap 0:35.858 2:19.785 2 42.494
20 544 Müller, Marcal BRA CBM Kawasaki 27:11.986 10 1 lap 0:10.612 2:20.893 3 42.16
21 912 Vilardi, Thales BRA CBM KTM 26:34.776 9 2 laps 1 lap 2:16.801 4 43.421
22 59 Cabrera Rivero, Pablo Herman URG FUM KTM 25:29.837 8 3 laps 1 lap 2:34.323 7 38.491
23 58 Rolando Rodriguez, Nicolas URG FUM Honda 25:34.432 8 3 laps 0:04.595 2:23.293 1 41.454
24 151 Kullas, Harri FIN SML Yamaha 15:09.737 6 5 laps 2 laps 2:08.963 4 46.06
25 118 Ramos, Jean BRA CBM Honda 4:06.236 0 11 laps 6 laps 0:00.000 0 0

MX3 ET EMX 2 EN FINLANDE :

RESULTS

MX3 Qualifying practice top ten : 1. Alex Salvini (ITA, Husqvarna), 1:47.837; 2. Carlos Campano Jiminez (ESP, Yamaha), +0:01.433; 3. Toni Eriksson (FIN, KTM), +0:01.899; 4. Tommi Makinen (FIN, Honda), +0:01.984; 5. Matevz Irt (SLO, Husqvarna), +0:02.223; 6. Augusts Justs (LAT, Honda), +0:02.832; 7. Marko Kovalainen (FIN, Yamaha), +0:03.318; 8. Lauri Lehtla (EST, KTM), +0:03.430; 9. Mikko Jumppanen (FIN, Honda), +0:03.594; 10. Jussi Nikkila (FIN, Yamaha), +0:03.725

EMX2 Qualifying race top ten : 1. Steven Lenoir (FRA, Suzuki), 35:01.877; ; 2. Frederik Noren (SWE, Honda), +0:08.007; 3. Cedric Lieber (BEL, Suzuki), +0:15.789; 4. Jon Soderberg (FIN, KTM), +0:17.152; 5. Calle Aspegren (SWE, KTM), +0:20.443; 6. Luke Hawkins (GBR, Honda), +0:33.629; 7. Jernej Irt (SLO, Husqvarna), +0:36.659; 8. Priit Rätsep (EST, Honda), +0:39.723; 9. Samuel Zeni (ITA, KTM), +0:55.132; 10. Andrea Cervellin (ITA, Husqvarna), +1:01.562

A voir aussi :

Le commentaires sont fermés.